createdAt,value
2018-11-29T00:00:44.413Z,0.00
2018-11-29T00:01:44.455Z,0.00
2018-11-29T00:02:44.400Z,0.00
2018-11-29T00:03:44.418Z,0.00
2018-11-29T00:04:44.369Z,0.00
2018-11-29T00:05:44.363Z,0.00
2018-11-29T00:06:44.393Z,0.00
2018-11-29T00:07:44.358Z,0.00
2018-11-29T00:08:44.325Z,0.00
2018-11-29T00:09:44.314Z,0.00
2018-11-29T00:10:44.308Z,0.00
2018-11-29T00:11:44.335Z,0.00
2018-11-29T00:12:44.292Z,0.00
2018-11-29T00:13:44.299Z,0.00
2018-11-29T00:14:44.267Z,0.00
2018-11-29T00:15:44.256Z,0.00
2018-11-29T00:16:44.283Z,0.00
2018-11-29T00:17:44.240Z,0.00
2018-11-29T00:18:44.258Z,0.00
2018-11-29T00:19:44.225Z,0.00
2018-11-29T00:20:44.201Z,0.00
2018-11-29T00:21:44.234Z,0.00
2018-11-29T00:22:44.180Z,0.00
2018-11-29T00:23:44.189Z,0.00
2018-11-29T00:24:44.160Z,0.00
2018-11-29T00:25:44.178Z,0.00
2018-11-29T00:26:44.174Z,0.00
2018-11-29T00:27:44.131Z,0.00
2018-11-29T00:28:44.121Z,0.00
2018-11-29T00:29:44.107Z,0.00
2018-11-29T00:30:44.091Z,0.00
2018-11-29T00:31:44.158Z,0.00
2018-11-29T00:32:44.114Z,0.00
2018-11-29T00:33:44.072Z,0.00
2018-11-29T00:34:44.063Z,0.00
2018-11-29T00:35:44.045Z,0.00
2018-11-29T00:36:44.033Z,0.00
2018-11-29T00:37:44.043Z,0.00
2018-11-29T00:38:44.018Z,0.00
2018-11-29T00:39:44.001Z,0.00
2018-11-29T00:40:43.987Z,0.00
2018-11-29T00:41:43.974Z,0.00
2018-11-29T00:42:43.969Z,0.00
2018-11-29T00:43:44.000Z,0.00
2018-11-29T00:44:43.943Z,0.00
2018-11-29T00:45:43.935Z,0.00
2018-11-29T00:46:43.927Z,0.00
2018-11-29T00:47:43.908Z,0.00
2018-11-29T00:48:43.949Z,0.00
2018-11-29T00:49:43.897Z,0.00
2018-11-29T00:50:43.882Z,0.00
2018-11-29T00:51:43.874Z,0.00
2018-11-29T00:52:43.857Z,0.00
2018-11-29T00:53:43.883Z,0.00
2018-11-29T00:54:43.844Z,0.00
2018-11-29T00:55:43.830Z,0.00
2018-11-29T00:56:43.830Z,0.00
2018-11-29T00:57:43.801Z,0.00
2018-11-29T00:58:43.827Z,0.00
2018-11-29T00:59:43.826Z,0.00
2018-11-29T01:00:43.773Z,0.00
2018-11-29T01:01:43.774Z,0.00
2018-11-29T01:02:43.752Z,0.00
2018-11-29T01:03:43.754Z,0.00
2018-11-29T01:04:43.770Z,0.00
2018-11-29T01:05:43.729Z,0.00
2018-11-29T01:06:43.772Z,0.00
2018-11-29T01:07:43.700Z,0.00
2018-11-29T01:08:43.688Z,0.00
2018-11-29T01:09:43.675Z,0.00
2018-11-29T01:10:43.682Z,0.00
2018-11-29T01:11:43.689Z,0.00
2018-11-29T01:12:43.653Z,0.00
2018-11-29T01:13:43.650Z,0.00
2018-11-29T01:14:43.624Z,0.00
2018-11-29T01:15:43.614Z,0.00
2018-11-29T01:16:43.636Z,0.00
2018-11-29T01:17:43.654Z,0.00
2018-11-29T01:18:43.583Z,0.00
2018-11-29T01:19:43.569Z,0.00
2018-11-29T01:20:43.560Z,0.00
2018-11-29T01:21:43.588Z,0.00
2018-11-29T01:22:43.542Z,0.00
2018-11-29T01:23:43.525Z,0.00
2018-11-29T01:24:43.534Z,0.00
2018-11-29T01:25:43.505Z,0.00
2018-11-29T01:26:43.534Z,0.00
2018-11-29T01:27:43.497Z,0.00
2018-11-29T01:28:43.487Z,0.00
2018-11-29T01:29:43.483Z,0.00
2018-11-29T01:30:43.453Z,0.00
2018-11-29T01:31:43.484Z,0.00
2018-11-29T01:32:43.466Z,0.00
2018-11-29T01:33:43.420Z,0.00
2018-11-29T01:34:43.411Z,0.00
2018-11-29T01:35:43.401Z,0.00
2018-11-29T01:36:43.428Z,0.00
2018-11-29T01:37:43.391Z,0.00
2018-11-29T01:38:43.380Z,0.00
2018-11-29T01:39:43.355Z,0.00
2018-11-29T01:40:43.356Z,0.00
2018-11-29T01:41:43.372Z,0.00
2018-11-29T01:42:43.332Z,0.00
2018-11-29T01:43:43.352Z,0.00
2018-11-29T01:44:43.328Z,0.00
2018-11-29T01:45:43.291Z,0.00
2018-11-29T01:46:43.284Z,0.00
2018-11-29T01:47:43.273Z,0.00
2018-11-29T01:48:43.310Z,0.00
2018-11-29T01:49:43.254Z,0.00
2018-11-29T01:50:43.259Z,0.00
2018-11-29T01:51:43.234Z,0.00
2018-11-29T01:52:43.220Z,0.00
2018-11-29T01:53:43.248Z,0.00
2018-11-29T01:54:43.200Z,0.00
2018-11-29T01:55:43.187Z,0.00
2018-11-29T01:56:43.192Z,0.00
2018-11-29T01:57:43.167Z,0.00
2018-11-29T01:58:43.163Z,0.00
2018-11-29T01:59:43.182Z,0.00
2018-11-29T02:00:43.134Z,0.00
2018-11-29T02:01:43.121Z,0.00
2018-11-29T02:02:43.112Z,0.00
2018-11-29T02:03:43.141Z,0.00
2018-11-29T02:04:43.110Z,0.00
2018-11-29T02:05:43.124Z,0.00
2018-11-29T02:06:43.080Z,0.00
2018-11-29T02:07:43.058Z,0.00
2018-11-29T02:08:43.046Z,0.00
2018-11-29T02:09:43.036Z,0.00
2018-11-29T02:10:43.051Z,0.00
2018-11-29T02:11:43.020Z,0.00
2018-11-29T02:12:43.004Z,0.00
2018-11-29T02:13:43.000Z,0.00
2018-11-29T02:14:42.993Z,0.00
2018-11-29T02:15:42.968Z,0.00
2018-11-29T02:16:43.023Z,0.00
2018-11-29T02:17:42.992Z,0.00
2018-11-29T02:18:42.989Z,0.00
2018-11-29T02:19:42.933Z,0.00
2018-11-29T02:20:42.917Z,0.00
2018-11-29T02:21:42.905Z,0.00
2018-11-29T02:22:42.911Z,0.00
2018-11-29T02:23:42.919Z,0.00
2018-11-29T02:24:42.885Z,0.00
2018-11-29T02:25:42.866Z,0.00
2018-11-29T02:26:42.898Z,0.00
2018-11-29T02:27:42.839Z,0.00
2018-11-29T02:28:42.848Z,0.00
2018-11-29T02:29:42.828Z,0.00
2018-11-29T02:30:42.810Z,0.00
2018-11-29T02:31:42.833Z,0.00
2018-11-29T02:32:42.801Z,0.00
2018-11-29T02:33:42.781Z,0.00
2018-11-29T02:34:42.806Z,0.00
2018-11-29T02:35:42.760Z,0.00
2018-11-29T02:36:42.775Z,0.00
2018-11-29T02:37:42.741Z,0.00
2018-11-29T02:38:42.723Z,0.00
2018-11-29T02:39:42.717Z,0.00
2018-11-29T02:40:42.732Z,0.00
2018-11-29T02:41:42.731Z,0.00
2018-11-29T02:42:42.703Z,0.00
2018-11-29T02:43:42.670Z,0.00
2018-11-29T02:44:42.662Z,0.00
2018-11-29T02:45:42.651Z,0.00
2018-11-29T02:46:42.692Z,0.00
2018-11-29T02:47:42.633Z,0.00
2018-11-29T02:48:42.615Z,0.00
2018-11-29T02:49:42.612Z,0.00
2018-11-29T02:50:42.601Z,0.00
2018-11-29T02:51:42.627Z,0.00
2018-11-29T02:52:42.578Z,0.00
2018-11-29T02:53:42.578Z,0.00
2018-11-29T02:54:42.554Z,0.00
2018-11-29T02:55:42.545Z,0.00
2018-11-29T02:56:42.572Z,0.00
2018-11-29T02:57:42.523Z,0.00
2018-11-29T02:58:42.512Z,0.00
2018-11-29T02:59:42.512Z,0.00
2018-11-29T03:00:42.491Z,0.00
2018-11-29T03:01:42.515Z,0.00
2018-11-29T03:02:42.479Z,0.00
2018-11-29T03:03:42.507Z,0.00
2018-11-29T03:04:42.449Z,0.00
2018-11-29T03:05:42.458Z,0.00
2018-11-29T03:06:42.424Z,0.00
2018-11-29T03:07:42.422Z,0.00
2018-11-29T03:08:42.443Z,0.00
2018-11-29T03:09:42.407Z,0.00
2018-11-29T03:10:42.394Z,0.00
2018-11-29T03:11:42.411Z,0.00
2018-11-29T03:12:42.357Z,0.00
2018-11-29T03:13:42.389Z,0.00
2018-11-29T03:14:42.354Z,0.00
2018-11-29T03:15:42.332Z,0.00
2018-11-29T03:16:42.323Z,0.00
2018-11-29T03:17:42.330Z,0.00
2018-11-29T03:18:42.325Z,0.00
2018-11-29T03:19:42.301Z,0.00
2018-11-29T03:20:42.279Z,0.00
2018-11-29T03:21:42.263Z,0.00
2018-11-29T03:22:42.255Z,0.00
2018-11-29T03:23:42.294Z,0.00
2018-11-29T03:24:42.238Z,0.00
2018-11-29T03:25:42.221Z,0.00
2018-11-29T03:26:42.206Z,0.00
2018-11-29T03:27:42.195Z,0.00
2018-11-29T03:28:42.226Z,0.00
2018-11-29T03:29:42.217Z,0.00
2018-11-29T03:30:42.189Z,0.00
2018-11-29T03:31:42.157Z,0.00
2018-11-29T03:32:42.165Z,0.00
2018-11-29T03:33:42.175Z,0.00
2018-11-29T03:34:42.123Z,0.00
2018-11-29T03:35:44.527Z,0.00
2018-11-29T03:36:42.115Z,0.00
2018-11-29T03:37:42.093Z,0.00
2018-11-29T03:38:42.109Z,0.00
2018-11-29T03:39:42.072Z,0.00
2018-11-29T03:40:42.056Z,0.00
2018-11-29T03:41:42.044Z,0.00
2018-11-29T03:42:42.099Z,0.00
2018-11-29T03:43:42.031Z,0.00
2018-11-29T03:44:42.013Z,0.00
2018-11-29T03:45:42.004Z,0.00
2018-11-29T03:46:42.166Z,0.00
2018-11-29T03:47:42.026Z,0.00
2018-11-29T03:48:41.988Z,0.00
2018-11-29T03:49:41.960Z,0.00
2018-11-29T03:50:41.956Z,0.00
2018-11-29T03:51:41.946Z,0.00
2018-11-29T03:52:41.963Z,0.00
2018-11-29T03:53:41.939Z,0.00
2018-11-29T03:54:41.913Z,0.00
2018-11-29T03:55:41.898Z,0.00
2018-11-29T03:56:41.887Z,0.00
2018-11-29T03:57:41.910Z,0.00
2018-11-29T03:58:41.868Z,0.00
2018-11-29T03:59:41.872Z,0.00
2018-11-29T04:00:41.853Z,0.00
2018-11-29T04:01:41.831Z,0.00
2018-11-29T04:02:41.858Z,0.00
2018-11-29T04:03:41.842Z,0.00
2018-11-29T04:04:41.796Z,0.00
2018-11-29T04:05:41.790Z,0.00
2018-11-29T04:06:41.791Z,0.00
2018-11-29T04:07:41.809Z,0.00
2018-11-29T04:08:41.765Z,0.00
2018-11-29T04:09:41.749Z,0.00
2018-11-29T04:10:41.736Z,0.00
2018-11-29T04:11:41.743Z,0.00
2018-11-29T04:12:41.760Z,0.00
2018-11-29T04:13:41.743Z,0.00
2018-11-29T04:14:41.703Z,0.00
2018-11-29T04:15:41.683Z,0.00
2018-11-29T04:16:41.675Z,0.00
2018-11-29T04:17:41.664Z,0.00
2018-11-29T04:18:41.695Z,0.00
2018-11-29T04:19:41.646Z,0.00
2018-11-29T04:20:41.638Z,0.00
2018-11-29T04:21:41.665Z,0.00
2018-11-29T04:22:41.604Z,0.00
2018-11-29T04:23:41.598Z,0.00
2018-11-29T04:24:41.599Z,0.00
2018-11-29T04:25:41.571Z,0.00
2018-11-29T04:26:41.595Z,0.00
2018-11-29T04:27:41.556Z,0.00
2018-11-29T04:28:41.543Z,0.00
2018-11-29T04:29:41.532Z,0.00
2018-11-29T04:30:41.589Z,0.00
2018-11-29T04:31:41.510Z,0.00
2018-11-29T04:32:41.516Z,0.00
2018-11-29T04:33:41.488Z,0.00
2018-11-29T04:34:41.487Z,0.00
2018-11-29T04:35:41.498Z,0.00
2018-11-29T04:36:41.486Z,0.00
2018-11-29T04:37:41.487Z,0.00
2018-11-29T04:38:41.434Z,0.00
2018-11-29T04:39:41.424Z,0.00
2018-11-29T04:40:41.417Z,0.00
2018-11-29T04:41:41.406Z,0.00
2018-11-29T04:42:41.451Z,0.00
2018-11-29T04:43:41.385Z,0.00
2018-11-29T04:44:41.372Z,0.00
2018-11-29T04:45:41.369Z,0.00
2018-11-29T04:46:41.352Z,0.00
2018-11-29T04:47:41.385Z,0.00
2018-11-29T04:48:41.330Z,0.00
2018-11-29T04:49:41.341Z,0.00
2018-11-29T04:50:41.303Z,0.00
2018-11-29T04:51:41.292Z,0.00
2018-11-29T04:52:41.324Z,0.00
2018-11-29T04:53:41.299Z,0.00
2018-11-29T04:54:41.270Z,0.00
2018-11-29T04:55:41.275Z,0.00
2018-11-29T04:56:41.242Z,0.00
2018-11-29T04:57:41.277Z,0.00
2018-11-29T04:58:41.229Z,0.00
2018-11-29T04:59:41.220Z,0.00
2018-11-29T05:00:41.201Z,0.00
2018-11-29T05:01:41.227Z,0.00
2018-11-29T05:02:41.218Z,0.00
2018-11-29T05:03:41.188Z,0.00
2018-11-29T05:04:41.155Z,0.00
2018-11-29T05:05:41.147Z,0.00
2018-11-29T05:06:41.135Z,0.00
2018-11-29T05:07:41.184Z,0.00
2018-11-29T05:08:41.119Z,0.00
2018-11-29T05:09:41.110Z,0.00
2018-11-29T05:10:41.091Z,0.00
2018-11-29T05:11:41.081Z,0.00
2018-11-29T05:12:41.109Z,0.00
2018-11-29T05:13:41.084Z,0.00
2018-11-29T05:14:41.110Z,0.00
2018-11-29T05:15:41.052Z,0.00
2018-11-29T05:16:41.024Z,0.00
2018-11-29T05:17:41.022Z,0.00
2018-11-29T05:18:41.005Z,0.00
2018-11-29T05:19:41.031Z,0.00
2018-11-29T05:20:41.002Z,0.00
2018-11-29T05:21:40.973Z,0.00
2018-11-29T05:22:40.965Z,0.00
2018-11-29T05:23:40.955Z,0.00
2018-11-29T05:24:40.985Z,0.00
2018-11-29T05:25:40.935Z,0.00
2018-11-29T05:26:40.946Z,0.00
2018-11-29T05:27:40.914Z,0.00
2018-11-29T05:28:40.903Z,0.00
2018-11-29T05:29:40.931Z,0.00
2018-11-29T05:30:40.885Z,0.00
2018-11-29T05:31:40.888Z,0.00
2018-11-29T05:32:40.863Z,0.00
2018-11-29T05:33:40.848Z,0.00
2018-11-29T05:34:40.875Z,0.00
2018-11-29T05:35:40.883Z,0.00
2018-11-29T05:36:40.831Z,0.00
2018-11-29T05:37:40.808Z,0.00
2018-11-29T05:38:40.795Z,0.00
2018-11-29T05:39:40.799Z,0.00
2018-11-29T05:40:40.817Z,0.00
2018-11-29T05:41:40.763Z,0.00
2018-11-29T05:42:40.766Z,0.00
2018-11-29T05:43:40.748Z,0.00
2018-11-29T05:44:40.730Z,0.00
2018-11-29T05:45:40.752Z,0.00
2018-11-29T05:46:40.720Z,0.00
2018-11-29T05:47:40.735Z,0.00
2018-11-29T05:48:40.697Z,0.00
2018-11-29T05:49:40.677Z,0.00
2018-11-29T05:50:40.665Z,0.00
2018-11-29T05:51:40.693Z,0.00
2018-11-29T05:52:41.764Z,0.00
2018-11-29T05:53:40.631Z,0.00
2018-11-29T05:54:40.640Z,0.00
2018-11-29T05:55:40.607Z,0.00
2018-11-29T05:56:40.643Z,0.00
2018-11-29T05:57:40.606Z,0.00
2018-11-29T05:58:40.581Z,0.00
2018-11-29T05:59:40.568Z,0.00
2018-11-29T06:00:40.576Z,0.00
2018-11-29T06:01:40.585Z,0.00
2018-11-29T06:02:40.542Z,0.00
2018-11-29T06:03:40.521Z,0.00
2018-11-29T06:04:40.529Z,0.00
2018-11-29T06:05:40.501Z,0.00
2018-11-29T06:06:40.524Z,0.00
2018-11-29T06:07:40.507Z,0.00
2018-11-29T06:08:40.472Z,0.00
2018-11-29T06:09:40.458Z,0.00
2018-11-29T06:10:40.449Z,0.00
2018-11-29T06:11:40.474Z,0.00
2018-11-29T06:12:40.429Z,0.00
2018-11-29T06:13:40.427Z,0.00
2018-11-29T06:14:40.408Z,0.00
2018-11-29T06:15:40.397Z,0.00
2018-11-29T06:16:40.418Z,0.00
2018-11-29T06:17:40.377Z,0.00
2018-11-29T06:18:40.358Z,0.00
2018-11-29T06:19:40.367Z,0.00
2018-11-29T06:20:40.341Z,0.00
2018-11-29T06:21:40.381Z,0.00
2018-11-29T06:22:40.321Z,0.00
2018-11-29T06:23:40.311Z,0.00
2018-11-29T06:24:40.302Z,0.00
2018-11-29T06:25:40.307Z,0.00
2018-11-29T06:26:40.312Z,5.62
2018-11-29T06:27:40.283Z,5.62
2018-11-29T06:28:40.265Z,5.62
2018-11-29T06:29:40.294Z,5.62
2018-11-29T06:30:40.233Z,5.62
2018-11-29T06:31:40.223Z,11.25
2018-11-29T06:32:40.231Z,11.25
2018-11-29T06:33:40.203Z,11.25
2018-11-29T06:34:40.224Z,11.25
2018-11-29T06:35:40.196Z,11.25
2018-11-29T06:36:40.208Z,11.25
2018-11-29T06:37:40.166Z,11.25
2018-11-29T06:38:40.161Z,11.25
2018-11-29T06:39:40.146Z,16.88
2018-11-29T06:40:40.128Z,16.88
2018-11-29T06:41:40.170Z,16.88
2018-11-29T06:42:40.125Z,16.88
2018-11-29T06:43:40.097Z,16.88
2018-11-29T06:44:40.089Z,16.88
2018-11-29T06:45:40.088Z,16.88
2018-11-29T06:46:40.112Z,22.50
2018-11-29T06:47:40.095Z,22.50
2018-11-29T06:48:40.040Z,28.12
2018-11-29T06:49:40.031Z,28.12
2018-11-29T06:50:40.052Z,28.12
2018-11-29T06:51:40.013Z,33.75
2018-11-29T06:52:40.035Z,33.75
2018-11-29T06:53:40.026Z,39.38
2018-11-29T06:54:39.976Z,45.00
2018-11-29T06:55:39.969Z,45.00
2018-11-29T06:56:39.950Z,50.62
2018-11-29T06:57:40.000Z,50.62
2018-11-29T06:58:39.947Z,56.25
2018-11-29T06:59:39.927Z,56.25
2018-11-29T07:00:39.911Z,61.88
2018-11-29T07:01:39.895Z,61.88
2018-11-29T07:02:39.923Z,67.50
2018-11-29T07:03:39.905Z,73.12
2018-11-29T07:04:39.875Z,78.75
2018-11-29T07:05:39.853Z,78.75
2018-11-29T07:06:39.843Z,84.38
2018-11-29T07:07:39.870Z,84.38
2018-11-29T07:08:39.844Z,84.38
2018-11-29T07:09:39.864Z,90.00
2018-11-29T07:10:39.800Z,95.62
2018-11-29T07:11:39.791Z,101.25
2018-11-29T07:12:39.776Z,106.88
2018-11-29T07:13:39.785Z,112.50
2018-11-29T07:14:39.796Z,118.12
2018-11-29T07:15:39.768Z,118.12
2018-11-29T07:16:39.740Z,123.75
2018-11-29T07:17:39.736Z,129.38
2018-11-29T07:18:39.710Z,135.00
2018-11-29T07:19:39.740Z,140.62
2018-11-29T07:20:39.703Z,146.25
2018-11-29T07:21:39.703Z,157.50
2018-11-29T07:22:39.689Z,157.50
2018-11-29T07:23:39.673Z,157.50
2018-11-29T07:24:39.689Z,163.12
2018-11-29T07:25:39.645Z,163.12
2018-11-29T07:26:39.629Z,174.38
2018-11-29T07:27:39.615Z,168.75
2018-11-29T07:28:39.625Z,168.75
2018-11-29T07:29:39.633Z,174.38
2018-11-29T07:30:39.588Z,174.38
2018-11-29T07:31:39.574Z,174.38
2018-11-29T07:32:39.560Z,180.00
2018-11-29T07:33:39.547Z,180.00
2018-11-29T07:34:39.599Z,180.00
2018-11-29T07:35:39.535Z,180.00
2018-11-29T07:36:39.533Z,180.00
2018-11-29T07:37:39.508Z,185.62
2018-11-29T07:38:39.496Z,185.62
2018-11-29T07:39:39.524Z,185.62
2018-11-29T07:40:39.495Z,185.62
2018-11-29T07:41:39.473Z,185.62
2018-11-29T07:42:39.455Z,191.25
2018-11-29T07:43:39.481Z,191.25
2018-11-29T07:44:39.433Z,191.25
2018-11-29T07:45:39.419Z,196.88
2018-11-29T07:46:39.425Z,202.50
2018-11-29T07:47:39.402Z,202.50
2018-11-29T07:48:39.421Z,208.12
2018-11-29T07:49:39.386Z,208.12
2018-11-29T07:50:39.370Z,213.75
2018-11-29T07:51:39.355Z,213.75
2018-11-29T07:52:39.373Z,225.00
2018-11-29T07:53:39.372Z,230.62
2018-11-29T07:54:39.357Z,241.88
2018-11-29T07:55:39.315Z,253.12
2018-11-29T07:56:39.305Z,264.38
2018-11-29T07:57:39.300Z,281.25
2018-11-29T07:58:39.331Z,298.12
2018-11-29T07:59:39.277Z,303.75
2018-11-29T08:00:39.261Z,315.00
2018-11-29T08:01:39.284Z,320.62
2018-11-29T08:02:39.248Z,326.25
2018-11-29T08:03:39.226Z,331.88
2018-11-29T08:04:39.232Z,331.88
2018-11-29T08:05:39.242Z,331.88
2018-11-29T08:06:39.189Z,326.25
2018-11-29T08:07:39.185Z,326.25
2018-11-29T08:08:39.169Z,320.62
2018-11-29T08:09:39.161Z,320.62
2018-11-29T08:10:39.206Z,315.00
2018-11-29T08:11:39.144Z,315.00
2018-11-29T08:12:39.132Z,315.00
2018-11-29T08:13:39.118Z,315.00
2018-11-29T08:14:39.107Z,320.62
2018-11-29T08:15:39.136Z,326.25
2018-11-29T08:16:39.148Z,320.62
2018-11-29T08:17:39.080Z,320.62
2018-11-29T08:18:39.081Z,315.00
2018-11-29T08:19:39.052Z,315.00
2018-11-29T08:20:39.050Z,315.00
2018-11-29T08:21:39.072Z,309.38
2018-11-29T08:22:39.041Z,309.38
2018-11-29T08:23:39.008Z,309.38
2018-11-29T08:24:38.998Z,309.38
2018-11-29T08:25:38.988Z,309.38
2018-11-29T08:26:39.003Z,309.38
2018-11-29T08:27:38.972Z,315.00
2018-11-29T08:28:38.953Z,315.00
2018-11-29T08:29:39.019Z,320.62
2018-11-29T08:30:38.930Z,326.25
2018-11-29T08:31:38.921Z,326.25
2018-11-29T08:32:38.914Z,331.88
2018-11-29T08:33:38.899Z,337.50
2018-11-29T08:34:38.930Z,343.12
2018-11-29T08:35:38.897Z,343.12
2018-11-29T08:36:38.872Z,343.12
2018-11-29T08:37:38.868Z,343.12
2018-11-29T08:38:38.850Z,343.12
2018-11-29T08:39:38.880Z,348.75
2018-11-29T08:40:38.832Z,348.75
2018-11-29T08:41:38.831Z,348.75
2018-11-29T08:42:38.806Z,348.75
2018-11-29T08:43:38.790Z,354.38
2018-11-29T08:44:38.819Z,354.38
2018-11-29T08:45:38.775Z,354.38
2018-11-29T08:46:38.758Z,354.38
2018-11-29T08:47:38.766Z,360.00
2018-11-29T08:48:38.738Z,360.00
2018-11-29T08:49:38.767Z,360.00
2018-11-29T08:50:38.723Z,371.25
2018-11-29T08:51:38.708Z,371.25
2018-11-29T08:52:38.695Z,365.62
2018-11-29T08:53:38.703Z,365.62
2018-11-29T08:54:38.710Z,365.62
2018-11-29T08:55:38.701Z,365.62
2018-11-29T08:56:38.651Z,365.62
2018-11-29T08:57:38.687Z,365.62
2018-11-29T08:58:38.631Z,365.62
2018-11-29T08:59:39.419Z,365.62
2018-11-29T09:00:38.625Z,371.25
2018-11-29T09:01:38.594Z,376.88
2018-11-29T09:02:38.632Z,371.25
2018-11-29T09:03:38.576Z,371.25
2018-11-29T09:04:38.570Z,371.25
2018-11-29T09:05:38.564Z,376.88
2018-11-29T09:06:38.566Z,376.88
2018-11-29T09:07:38.580Z,376.88
2018-11-29T09:08:38.529Z,382.50
2018-11-29T09:09:38.519Z,382.50
2018-11-29T09:10:38.500Z,382.50
2018-11-29T09:11:38.488Z,382.50
2018-11-29T09:12:38.522Z,388.12
2018-11-29T09:13:38.506Z,388.12
2018-11-29T09:14:38.456Z,388.12
2018-11-29T09:15:38.457Z,393.75
2018-11-29T09:16:38.476Z,393.75
2018-11-29T09:17:38.421Z,393.75
2018-11-29T09:18:38.415Z,399.38
2018-11-29T09:19:38.403Z,405.00
2018-11-29T09:20:38.421Z,405.00
2018-11-29T09:21:38.415Z,416.25
2018-11-29T09:22:38.376Z,433.12
2018-11-29T09:23:38.360Z,646.88
2018-11-29T09:24:38.346Z,956.25
2018-11-29T09:25:38.340Z,1344.38
2018-11-29T09:26:38.386Z,1755.00
2018-11-29T09:27:38.325Z,1800.00
2018-11-29T09:28:38.308Z,1794.38
2018-11-29T09:29:38.325Z,1693.12
2018-11-29T09:30:38.282Z,1710.00
2018-11-29T09:31:38.307Z,1839.38
2018-11-29T09:32:38.294Z,1957.50
2018-11-29T09:33:38.255Z,1974.38
2018-11-29T09:34:38.279Z,1912.50
2018-11-29T09:35:38.227Z,1901.25
2018-11-29T09:36:38.219Z,2036.25
2018-11-29T09:37:38.207Z,1974.38
2018-11-29T09:38:38.218Z,1991.25
2018-11-29T09:39:38.233Z,1878.75
2018-11-29T09:40:38.180Z,1985.62
2018-11-29T09:41:38.165Z,1873.12
2018-11-29T09:42:38.157Z,1636.88
2018-11-29T09:43:38.146Z,1783.12
2018-11-29T09:44:38.176Z,1822.50
2018-11-29T09:45:38.176Z,1721.25
2018-11-29T09:46:38.625Z,1631.25
2018-11-29T09:47:38.105Z,1575.00
2018-11-29T09:48:38.087Z,1501.88
2018-11-29T09:49:38.082Z,1434.38
2018-11-29T09:50:38.109Z,1473.75
2018-11-29T09:51:38.090Z,1591.88
2018-11-29T09:52:38.055Z,1490.62
2018-11-29T09:53:38.041Z,1383.75
2018-11-29T09:54:38.025Z,1417.50
2018-11-29T09:55:38.012Z,1400.62
2018-11-29T09:56:38.029Z,1372.50
2018-11-29T09:57:37.987Z,1310.62
2018-11-29T09:58:37.988Z,1299.38
2018-11-29T09:59:37.967Z,1327.50
2018-11-29T10:00:37.995Z,1350.00
2018-11-29T10:01:37.945Z,1265.62
2018-11-29T10:02:37.991Z,1220.62
2018-11-29T10:03:37.919Z,1237.50
2018-11-29T10:04:37.924Z,1260.00
2018-11-29T10:05:37.903Z,1276.88
2018-11-29T10:06:37.889Z,1265.62
2018-11-29T10:07:37.918Z,1226.25
2018-11-29T10:08:37.897Z,1243.12
2018-11-29T10:09:37.876Z,1321.88
2018-11-29T10:10:37.849Z,1299.38
2018-11-29T10:11:37.833Z,1310.62
2018-11-29T10:12:37.861Z,1395.00
2018-11-29T10:13:37.820Z,1456.88
2018-11-29T10:14:37.804Z,1473.75
2018-11-29T10:15:37.834Z,1479.38
2018-11-29T10:16:37.781Z,1507.50
2018-11-29T10:17:37.806Z,1524.38
2018-11-29T10:18:37.783Z,1530.00
2018-11-29T10:19:37.751Z,1620.00
2018-11-29T10:20:37.741Z,1614.38
2018-11-29T10:21:37.740Z,1608.75
2018-11-29T10:22:37.753Z,1501.88
2018-11-29T10:23:37.722Z,1473.75
2018-11-29T10:24:37.696Z,1361.25
2018-11-29T10:25:37.684Z,1395.00
2018-11-29T10:26:37.669Z,1496.25
2018-11-29T10:27:37.720Z,1440.00
2018-11-29T10:28:37.655Z,1400.62
2018-11-29T10:29:37.633Z,1462.50
2018-11-29T10:30:37.628Z,1631.25
2018-11-29T10:31:37.612Z,1631.25
2018-11-29T10:32:37.633Z,1676.25
2018-11-29T10:33:37.616Z,1698.75
2018-11-29T10:34:37.621Z,1580.62
2018-11-29T10:35:37.626Z,1653.75
2018-11-29T10:36:37.574Z,1569.38
2018-11-29T10:37:37.553Z,1636.88
2018-11-29T10:38:37.555Z,1530.00
2018-11-29T10:39:37.522Z,1473.75
2018-11-29T10:40:37.547Z,1411.88
2018-11-29T10:41:37.524Z,1411.88
2018-11-29T10:42:37.493Z,1350.00
2018-11-29T10:43:37.494Z,1350.00
2018-11-29T10:44:37.483Z,1321.88
2018-11-29T10:45:37.499Z,1350.00
2018-11-29T10:46:37.457Z,1305.00
2018-11-29T10:47:37.461Z,1423.12
2018-11-29T10:48:37.428Z,1355.62
2018-11-29T10:49:37.417Z,1406.25
2018-11-29T10:50:37.434Z,1383.75
2018-11-29T10:51:37.404Z,1344.38
2018-11-29T10:52:37.395Z,1265.62
2018-11-29T10:53:38.183Z,1276.88
2018-11-29T10:54:37.355Z,1265.62
2018-11-29T10:55:37.398Z,1299.38
2018-11-29T10:56:37.339Z,1237.50
2018-11-29T10:57:37.323Z,1231.88
2018-11-29T10:58:37.315Z,1299.38
2018-11-29T10:59:37.327Z,1260.00
2018-11-29T11:00:37.341Z,1237.50
2018-11-29T11:01:37.289Z,1181.25
2018-11-29T11:02:37.273Z,1220.62
2018-11-29T11:03:37.271Z,1237.50
2018-11-29T11:04:37.254Z,1288.12
2018-11-29T11:05:37.283Z,1383.75
2018-11-29T11:06:37.257Z,1333.12
2018-11-29T11:07:38.757Z,1181.25
2018-11-29T11:08:37.216Z,1186.88
2018-11-29T11:09:37.190Z,1175.62
2018-11-29T11:10:37.221Z,1158.75
2018-11-29T11:11:37.184Z,1175.62
2018-11-29T11:12:37.182Z,1243.12
2018-11-29T11:13:37.160Z,1175.62
2018-11-29T11:14:37.145Z,1209.38
2018-11-29T11:15:37.165Z,1203.75
2018-11-29T11:16:37.128Z,1265.62
2018-11-29T11:17:37.147Z,1198.12
2018-11-29T11:18:37.119Z,1175.62
2018-11-29T11:19:37.089Z,1147.50
2018-11-29T11:20:37.084Z,1136.25
2018-11-29T11:21:37.070Z,1136.25
2018-11-29T11:22:37.054Z,1136.25
2018-11-29T11:23:37.058Z,1091.25
2018-11-29T11:24:37.038Z,1074.38
2018-11-29T11:25:37.039Z,1130.62
2018-11-29T11:26:37.015Z,1080.00
2018-11-29T11:27:37.009Z,1125.00
2018-11-29T11:28:37.027Z,1147.50
2018-11-29T11:29:36.983Z,1158.75
2018-11-29T11:30:36.971Z,1141.88
2018-11-29T11:31:36.955Z,1147.50
2018-11-29T11:32:36.967Z,1158.75
2018-11-29T11:33:36.972Z,1080.00
2018-11-29T11:34:36.930Z,1080.00
2018-11-29T11:35:36.917Z,1051.88
2018-11-29T11:36:36.912Z,1029.38
2018-11-29T11:37:36.893Z,1035.00
2018-11-29T11:38:36.917Z,984.38
2018-11-29T11:39:36.879Z,990.00
2018-11-29T11:40:36.869Z,1006.88
2018-11-29T11:41:36.859Z,1018.12
2018-11-29T11:42:36.846Z,1051.88
2018-11-29T11:43:36.863Z,1102.50
2018-11-29T11:44:36.835Z,1091.25
2018-11-29T11:45:36.808Z,1023.75
2018-11-29T11:46:36.795Z,1018.12
2018-11-29T11:47:36.783Z,1018.12
2018-11-29T11:48:36.809Z,1023.75
2018-11-29T11:49:36.779Z,1006.88
2018-11-29T11:50:36.808Z,1006.88
2018-11-29T11:51:36.745Z,1018.12
2018-11-29T11:52:36.737Z,1006.88
2018-11-29T11:53:36.726Z,984.38
2018-11-29T11:54:36.712Z,961.88
2018-11-29T11:55:36.749Z,950.62
2018-11-29T11:56:36.706Z,905.62
2018-11-29T11:57:36.688Z,894.38
2018-11-29T11:58:36.702Z,894.38
2018-11-29T11:59:36.655Z,911.25
2018-11-29T12:00:36.700Z,905.62
2018-11-29T12:01:36.639Z,900.00
2018-11-29T12:02:36.623Z,877.50
2018-11-29T12:03:36.630Z,883.12
2018-11-29T12:04:36.607Z,877.50
2018-11-29T12:05:36.631Z,871.88
2018-11-29T12:06:36.586Z,866.25
2018-11-29T12:07:36.568Z,849.38
2018-11-29T12:08:36.671Z,849.38
2018-11-29T12:09:36.542Z,855.00
2018-11-29T12:10:36.556Z,843.75
2018-11-29T12:11:36.536Z,832.50
2018-11-29T12:12:36.515Z,838.12
2018-11-29T12:13:36.549Z,832.50
2018-11-29T12:14:36.501Z,815.62
2018-11-29T12:15:36.489Z,804.38
2018-11-29T12:16:36.519Z,787.50
2018-11-29T12:17:36.490Z,776.25
2018-11-29T12:18:36.455Z,798.75
2018-11-29T12:19:36.448Z,776.25
2018-11-29T12:20:36.443Z,765.00
2018-11-29T12:21:36.453Z,748.12
2018-11-29T12:22:36.454Z,736.88
2018-11-29T12:23:36.416Z,731.25
2018-11-29T12:24:36.389Z,725.62
2018-11-29T12:25:36.379Z,725.62
2018-11-29T12:26:36.401Z,720.00
2018-11-29T12:27:36.361Z,714.38
2018-11-29T12:28:36.358Z,708.75
2018-11-29T12:29:36.349Z,703.12
2018-11-29T12:30:36.321Z,703.12
2018-11-29T12:31:36.351Z,708.75
2018-11-29T12:32:36.354Z,697.50
2018-11-29T12:33:36.296Z,691.88
2018-11-29T12:34:36.284Z,691.88
2018-11-29T12:35:36.293Z,686.25
2018-11-29T12:36:36.256Z,680.62
2018-11-29T12:37:36.283Z,669.38
2018-11-29T12:38:36.250Z,658.12
2018-11-29T12:39:36.289Z,658.12
2018-11-29T12:40:36.222Z,652.50
2018-11-29T12:41:36.206Z,646.88
2018-11-29T12:42:36.209Z,646.88
2018-11-29T12:43:36.188Z,646.88
2018-11-29T12:44:36.213Z,646.88
2018-11-29T12:45:36.181Z,641.25
2018-11-29T12:46:36.173Z,641.25
2018-11-29T12:47:36.153Z,646.88
2018-11-29T12:48:36.130Z,635.62
2018-11-29T12:49:36.200Z,618.75